sensor_id;sensor_type;location;lat;lon;timestamp;pressure;altitude;pressure_sealevel;temperature;humidity
41306;BME280;27051;50.376;19.152;2023-04-30T00:00:45;98024.40;;;12.55;66.84
41306;BME280;27051;50.376;19.152;2023-04-30T00:03:32;98027.95;;;12.48;66.91
41306;BME280;27051;50.376;19.152;2023-04-30T00:06:01;98028.34;;;12.49;67.04
41306;BME280;27051;50.376;19.152;2023-04-30T00:08:28;98030.67;;;12.50;67.00
41306;BME280;27051;50.376;19.152;2023-04-30T00:10:54;98032.20;;;12.46;67.20
41306;BME280;27051;50.376;19.152;2023-04-30T00:13:21;98029.35;;;12.45;67.14
41306;BME280;27051;50.376;19.152;2023-04-30T00:15:47;98030.83;;;12.49;67.09
41306;BME280;27051;50.376;19.152;2023-04-30T00:18:13;98031.63;;;12.44;67.26
41306;BME280;27051;50.376;19.152;2023-04-30T00:20:40;98033.17;;;12.44;67.33
41306;BME280;27051;50.376;19.152;2023-04-30T00:23:06;98030.99;;;12.43;67.18
41306;BME280;27051;50.376;19.152;2023-04-30T00:25:32;98033.38;;;12.47;67.24
41306;BME280;27051;50.376;19.152;2023-04-30T00:27:59;98036.12;;;12.45;67.46
41306;BME280;27051;50.376;19.152;2023-04-30T00:30:25;98039.85;;;12.39;67.36
41306;BME280;27051;50.376;19.152;2023-04-30T00:32:52;98040.86;;;12.36;67.42
41306;BME280;27051;50.376;19.152;2023-04-30T00:35:18;98034.53;;;12.25;67.57
41306;BME280;27051;50.376;19.152;2023-04-30T00:37:44;98036.77;;;12.23;67.71
41306;BME280;27051;50.376;19.152;2023-04-30T00:40:11;98038.02;;;12.20;67.86
41306;BME280;27051;50.376;19.152;2023-04-30T00:42:38;98037.81;;;12.17;67.78
41306;BME280;27051;50.376;19.152;2023-04-30T00:45:05;98041.63;;;12.22;67.81
41306;BME280;27051;50.376;19.152;2023-04-30T00:47:31;98046.13;;;12.21;67.99
41306;BME280;27051;50.376;19.152;2023-04-30T00:49:58;98048.26;;;12.23;67.90
41306;BME280;27051;50.376;19.152;2023-04-30T00:52:26;98050.02;;;12.22;67.94
41306;BME280;27051;50.376;19.152;2023-04-30T00:54:52;98046.54;;;12.15;68.13
41306;BME280;27051;50.376;19.152;2023-04-30T00:57:19;98047.17;;;12.12;68.22
41306;BME280;27051;50.376;19.152;2023-04-30T00:59:46;98051.84;;;12.11;67.99
41306;BME280;27051;50.376;19.152;2023-04-30T01:02:13;98051.42;;;12.10;68.03
41306;BME280;27051;50.376;19.152;2023-04-30T01:04:40;98056.35;;;12.13;67.96
41306;BME280;27051;50.376;19.152;2023-04-30T01:07:06;98057.20;;;12.13;68.16
41306;BME280;27051;50.376;19.152;2023-04-30T01:09:33;98055.10;;;12.19;68.17
41306;BME280;27051;50.376;19.152;2023-04-30T01:12:12;98054.52;;;12.21;68.04
41306;BME280;27051;50.376;19.152;2023-04-30T01:15:35;98056.09;;;12.12;68.06
41306;BME280;27051;50.376;19.152;2023-04-30T01:18:24;98059.44;;;12.10;68.19
41306;BME280;27051;50.376;19.152;2023-04-30T01:20:59;98057.80;;;12.13;68.20
41306;BME280;27051;50.376;19.152;2023-04-30T01:23:37;98061.52;;;12.18;68.02
41306;BME280;27051;50.376;19.152;2023-04-30T01:28:42;98067.02;;;12.12;68.11
41306;BME280;27051;50.376;19.152;2023-04-30T01:31:13;98068.80;;;12.16;68.20
41306;BME280;27051;50.376;19.152;2023-04-30T01:33:41;98068.31;;;12.08;68.10
41306;BME280;27051;50.376;19.152;2023-04-30T01:38:48;98073.89;;;12.00;68.22
41306;BME280;27051;50.376;19.152;2023-04-30T01:44:36;98078.92;;;12.04;68.14
41306;BME280;27051;50.376;19.152;2023-04-30T01:50:16;98080.33;;;11.99;68.25
41306;BME280;27051;50.376;19.152;2023-04-30T01:52:50;98080.59;;;11.93;68.42
41306;BME280;27051;50.376;19.152;2023-04-30T01:55:22;98081.12;;;11.93;68.38
41306;BME280;27051;50.376;19.152;2023-04-30T01:57:57;98086.06;;;11.96;68.55
41306;BME280;27051;50.376;19.152;2023-04-30T02:00:26;98087.17;;;11.98;68.48
41306;BME280;27051;50.376;19.152;2023-04-30T02:02:53;98089.91;;;12.01;68.47
41306;BME280;27051;50.376;19.152;2023-04-30T02:05:19;98090.84;;;12.01;68.55
41306;BME280;27051;50.376;19.152;2023-04-30T02:07:48;98089.39;;;12.01;68.49
41306;BME280;27051;50.376;19.152;2023-04-30T02:10:16;98086.90;;;11.93;68.51
41306;BME280;27051;50.376;19.152;2023-04-30T02:12:44;98089.17;;;11.95;68.77
41306;BME280;27051;50.376;19.152;2023-04-30T02:15:13;98083.33;;;11.95;68.58
41306;BME280;27051;50.376;19.152;2023-04-30T02:17:42;98091.58;;;12.00;68.64
41306;BME280;27051;50.376;19.152;2023-04-30T02:20:09;98090.35;;;12.00;68.69
41306;BME280;27051;50.376;19.152;2023-04-30T02:22:36;98094.31;;;12.01;68.51
41306;BME280;27051;50.376;19.152;2023-04-30T02:25:03;98093.09;;;11.98;68.52
41306;BME280;27051;50.376;19.152;2023-04-30T02:27:31;98097.29;;;11.88;68.68
41306;BME280;27051;50.376;19.152;2023-04-30T02:29:58;98103.32;;;11.80;68.75
41306;BME280;27051;50.376;19.152;2023-04-30T02:32:25;98107.06;;;11.73;68.74
41306;BME280;27051;50.376;19.152;2023-04-30T02:34:51;98111.97;;;11.69;68.72
41306;BME280;27051;50.376;19.152;2023-04-30T02:37:17;98119.27;;;11.63;69.19
41306;BME280;27051;50.376;19.152;2023-04-30T02:39:44;98126.99;;;11.53;68.48
41306;BME280;27051;50.376;19.152;2023-04-30T02:42:10;98129.71;;;11.39;68.54
41306;BME280;27051;50.376;19.152;2023-04-30T02:44:37;98127.61;;;11.30;68.50
41306;BME280;27051;50.376;19.152;2023-04-30T02:47:03;98131.45;;;11.13;68.79
41306;BME280;27051;50.376;19.152;2023-04-30T02:49:30;98132.59;;;11.04;68.58
41306;BME280;27051;50.376;19.152;2023-04-30T02:51:56;98131.55;;;10.93;68.56
41306;BME280;27051;50.376;19.152;2023-04-30T02:54:23;98137.55;;;10.92;68.56
41306;BME280;27051;50.376;19.152;2023-04-30T02:56:49;98140.41;;;10.85;68.43
41306;BME280;27051;50.376;19.152;2023-04-30T02:59:16;98144.75;;;10.81;68.50
41306;BME280;27051;50.376;19.152;2023-04-30T03:01:42;98149.27;;;10.78;68.82
41306;BME280;27051;50.376;19.152;2023-04-30T03:04:08;98149.90;;;10.68;68.42
41306;BME280;27051;50.376;19.152;2023-04-30T03:06:35;98147.38;;;10.58;68.99
41306;BME280;27051;50.376;19.152;2023-04-30T03:09:01;98151.83;;;10.56;68.89
41306;BME280;27051;50.376;19.152;2023-04-30T03:11:28;98158.59;;;10.54;68.92
41306;BME280;27051;50.376;19.152;2023-04-30T03:13:54;98161.30;;;10.54;68.82
41306;BME280;27051;50.376;19.152;2023-04-30T03:16:21;98164.70;;;10.51;68.75
41306;BME280;27051;50.376;19.152;2023-04-30T03:18:47;98169.09;;;10.46;68.65
41306;BME280;27051;50.376;19.152;2023-04-30T03:21:14;98174.29;;;10.43;68.76
41306;BME280;27051;50.376;19.152;2023-04-30T03:23:41;98175.30;;;10.38;68.61
41306;BME280;27051;50.376;19.152;2023-04-30T03:26:07;98175.02;;;10.32;68.73
41306;BME280;27051;50.376;19.152;2023-04-30T03:28:37;98177.99;;;10.32;68.64
41306;BME280;27051;50.376;19.152;2023-04-30T03:31:03;98176.85;;;10.29;68.65
41306;BME280;27051;50.376;19.152;2023-04-30T03:33:33;98187.27;;;10.29;68.77
41306;BME280;27051;50.376;19.152;2023-04-30T03:35:59;98185.45;;;10.25;68.49
41306;BME280;27051;50.376;19.152;2023-04-30T03:38:26;98188.45;;;10.25;68.50
41306;BME280;27051;50.376;19.152;2023-04-30T03:40:52;98189.48;;;10.22;68.48
41306;BME280;27051;50.376;19.152;2023-04-30T03:43:20;98193.54;;;10.10;68.34
41306;BME280;27051;50.376;19.152;2023-04-30T03:45:47;98200.27;;;10.05;68.28
41306;BME280;27051;50.376;19.152;2023-04-30T03:48:14;98202.39;;;10.04;68.07
41306;BME280;27051;50.376;19.152;2023-04-30T03:50:41;98206.22;;;10.06;68.02
41306;BME280;27051;50.376;19.152;2023-04-30T03:53:08;98212.06;;;10.09;68.10
41306;BME280;27051;50.376;19.152;2023-04-30T03:55:34;98212.00;;;10.13;67.88
41306;BME280;27051;50.376;19.152;2023-04-30T03:58:01;98213.83;;;10.16;67.69
41306;BME280;27051;50.376;19.152;2023-04-30T04:00:28;98215.75;;;10.16;67.61
41306;BME280;27051;50.376;19.152;2023-04-30T04:02:57;98218.51;;;10.20;67.57
41306;BME280;27051;50.376;19.152;2023-04-30T04:05:24;98223.11;;;10.27;67.60
41306;BME280;27051;50.376;19.152;2023-04-30T04:07:50;98225.45;;;10.34;67.44
41306;BME280;27051;50.376;19.152;2023-04-30T04:10:17;98231.05;;;10.32;67.27
41306;BME280;27051;50.376;19.152;2023-04-30T04:12:44;98237.81;;;10.35;67.42
41306;BME280;27051;50.376;19.152;2023-04-30T04:15:11;98239.38;;;10.33;67.09
41306;BME280;27051;50.376;19.152;2023-04-30T04:17:37;98246.11;;;10.35;67.41
41306;BME280;27051;50.376;19.152;2023-04-30T04:20:05;98248.35;;;10.40;67.37
41306;BME280;27051;50.376;19.152;2023-04-30T04:22:31;98251.73;;;10.45;67.18
41306;BME280;27051;50.376;19.152;2023-04-30T04:24:58;98257.35;;;10.50;67.00
41306;BME280;27051;50.376;19.152;2023-04-30T04:27:25;98259.02;;;10.57;67.08
41306;BME280;27051;50.376;19.152;2023-04-30T04:29:51;98262.86;;;10.56;66.69
41306;BME280;27051;50.376;19.152;2023-04-30T04:32:18;98262.37;;;10.55;66.72
41306;BME280;27051;50.376;19.152;2023-04-30T04:34:45;98268.02;;;10.59;66.83
41306;BME280;27051;50.376;19.152;2023-04-30T04:37:11;98268.69;;;10.61;66.73
41306;BME280;27051;50.376;19.152;2023-04-30T04:39:38;98269.34;;;10.64;66.55
41306;BME280;27051;50.376;19.152;2023-04-30T04:42:05;98274.19;;;10.69;66.61
41306;BME280;27051;50.376;19.152;2023-04-30T04:44:31;98276.75;;;10.70;66.12
41306;BME280;27051;50.376;19.152;2023-04-30T04:46:58;98282.32;;;10.64;66.18
41306;BME280;27051;50.376;19.152;2023-04-30T04:49:25;98286.66;;;10.68;66.23
41306;BME280;27051;50.376;19.152;2023-04-30T04:51:52;98291.33;;;10.70;66.04
41306;BME280;27051;50.376;19.152;2023-04-30T04:54:18;98293.89;;;10.71;66.00
41306;BME280;27051;50.376;19.152;2023-04-30T04:56:45;98300.73;;;10.73;66.04
41306;BME280;27051;50.376;19.152;2023-04-30T04:59:12;98303.39;;;10.82;66.15
41306;BME280;27051;50.376;19.152;2023-04-30T05:01:38;98310.11;;;10.85;65.96
41306;BME280;27051;50.376;19.152;2023-04-30T05:04:05;98310.55;;;10.92;66.03
41306;BME280;27051;50.376;19.152;2023-04-30T05:06:32;98312.06;;;10.99;65.74
41306;BME280;27051;50.376;19.152;2023-04-30T05:08:58;98320.63;;;10.97;65.64
41306;BME280;27051;50.376;19.152;2023-04-30T05:11:25;98323.19;;;11.05;65.60
41306;BME280;27051;50.376;19.152;2023-04-30T05:13:52;98328.27;;;11.11;65.32
41306;BME280;27051;50.376;19.152;2023-04-30T05:16:19;98330.23;;;11.15;65.25
41306;BME280;27051;50.376;19.152;2023-04-30T05:18:46;98338.20;;;11.19;65.31
41306;BME280;27051;50.376;19.152;2023-04-30T05:21:13;98341.45;;;11.29;65.28
41306;BME280;27051;50.376;19.152;2023-04-30T05:23:40;98341.34;;;11.30;65.04
41306;BME280;27051;50.376;19.152;2023-04-30T05:26:07;98341.78;;;11.25;64.81
41306;BME280;27051;50.376;19.152;2023-04-30T05:28:34;98347.38;;;11.24;64.88
41306;BME280;27051;50.376;19.152;2023-04-30T05:31:01;98347.35;;;11.21;64.75
41306;BME280;27051;50.376;19.152;2023-04-30T05:33:32;98353.70;;;11.30;64.95
41306;BME280;27051;50.376;19.152;2023-04-30T05:36:00;98360.28;;;11.34;64.61
41306;BME280;27051;50.376;19.152;2023-04-30T05:38:26;98363.69;;;11.33;64.43
41306;BME280;27051;50.376;19.152;2023-04-30T05:40:53;98366.67;;;11.32;64.50
41306;BME280;27051;50.376;19.152;2023-04-30T05:43:20;98370.35;;;11.39;64.70
41306;BME280;27051;50.376;19.152;2023-04-30T05:45:47;98372.95;;;11.43;64.40
41306;BME280;27051;50.376;19.152;2023-04-30T05:48:14;98374.89;;;11.46;64.46
41306;BME280;27051;50.376;19.152;2023-04-30T05:50:41;98380.02;;;11.48;64.23
41306;BME280;27051;50.376;19.152;2023-04-30T05:53:08;98380.98;;;11.55;64.55
41306;BME280;27051;50.376;19.152;2023-04-30T05:55:34;98383.21;;;11.62;64.09
41306;BME280;27051;50.376;19.152;2023-04-30T05:58:01;98387.19;;;11.61;63.88
41306;BME280;27051;50.376;19.152;2023-04-30T06:00:28;98387.70;;;11.63;63.95
41306;BME280;27051;50.376;19.152;2023-04-30T06:03:04;98387.44;;;11.67;63.63
41306;BME280;27051;50.376;19.152;2023-04-30T06:05:31;98389.84;;;11.65;63.67
41306;BME280;27051;50.376;19.152;2023-04-30T06:07:58;98392.60;;;11.72;63.58
41306;BME280;27051;50.376;19.152;2023-04-30T06:10:24;98392.88;;;11.82;63.75
41306;BME280;27051;50.376;19.152;2023-04-30T06:12:51;98392.55;;;11.98;63.71
41306;BME280;27051;50.376;19.152;2023-04-30T06:15:18;98393.30;;;12.11;63.16
41306;BME280;27051;50.376;19.152;2023-04-30T06:17:45;98399.38;;;12.22;63.25
41306;BME280;27051;50.376;19.152;2023-04-30T06:20:13;98400.17;;;12.31;62.92
41306;BME280;27051;50.376;19.152;2023-04-30T06:22:40;98402.50;;;12.31;62.58
41306;BME280;27051;50.376;19.152;2023-04-30T06:25:09;98404.40;;;12.39;62.43
41306;BME280;27051;50.376;19.152;2023-04-30T06:27:36;98404.58;;;12.43;62.37
41306;BME280;27051;50.376;19.152;2023-04-30T06:30:04;98410.83;;;12.49;62.12
41306;BME280;27051;50.376;19.152;2023-04-30T06:32:31;98411.95;;;12.57;62.04
41306;BME280;27051;50.376;19.152;2023-04-30T06:34:58;98413.48;;;12.68;61.89
41306;BME280;27051;50.376;19.152;2023-04-30T06:37:24;98417.60;;;12.80;62.13
41306;BME280;27051;50.376;19.152;2023-04-30T06:39:51;98414.09;;;12.94;61.57
41306;BME280;27051;50.376;19.152;2023-04-30T06:42:18;98416.73;;;13.10;61.60
41306;BME280;27051;50.376;19.152;2023-04-30T06:44:45;98414.51;;;13.23;61.29
41306;BME280;27051;50.376;19.152;2023-04-30T06:47:14;98413.94;;;13.40;61.13
41306;BME280;27051;50.376;19.152;2023-04-30T06:49:42;98410.12;;;13.44;60.64
41306;BME280;27051;50.376;19.152;2023-04-30T06:52:09;98414.86;;;13.43;60.58
41306;BME280;27051;50.376;19.152;2023-04-30T06:54:35;98409.98;;;13.48;60.92
41306;BME280;27051;50.376;19.152;2023-04-30T06:57:02;98412.77;;;13.56;60.63
41306;BME280;27051;50.376;19.152;2023-04-30T06:59:29;98414.33;;;13.59;60.38
41306;BME280;27051;50.376;19.152;2023-04-30T07:01:55;98414.94;;;13.73;60.49
41306;BME280;27051;50.376;19.152;2023-04-30T07:04:23;98419.54;;;13.82;60.07
41306;BME280;27051;50.376;19.152;2023-04-30T07:07:00;98420.16;;;13.79;59.22
41306;BME280;27051;50.376;19.152;2023-04-30T07:09:30;98419.21;;;13.71;59.33
41306;BME280;27051;50.376;19.152;2023-04-30T07:11:57;98420.15;;;13.72;58.59
41306;BME280;27051;50.376;19.152;2023-04-30T07:14:23;98425.09;;;13.68;58.73
41306;BME280;27051;50.376;19.152;2023-04-30T07:16:50;98418.11;;;13.66;58.99
41306;BME280;27051;50.376;19.152;2023-04-30T07:19:23;98422.16;;;13.76;59.36
41306;BME280;27051;50.376;19.152;2023-04-30T07:21:50;98428.11;;;13.86;59.36
41306;BME280;27051;50.376;19.152;2023-04-30T07:24:16;98423.52;;;13.94;58.66
41306;BME280;27051;50.376;19.152;2023-04-30T07:26:43;98421.98;;;14.06;58.37
41306;BME280;27051;50.376;19.152;2023-04-30T07:29:10;98416.92;;;14.15;57.86
41306;BME280;27051;50.376;19.152;2023-04-30T07:31:41;98427.35;;;14.15;57.82
41306;BME280;27051;50.376;19.152;2023-04-30T07:34:08;98425.95;;;14.18;57.75
41306;BME280;27051;50.376;19.152;2023-04-30T07:36:35;98423.02;;;14.37;58.37
41306;BME280;27051;50.376;19.152;2023-04-30T07:39:02;98423.26;;;14.60;57.71
41306;BME280;27051;50.376;19.152;2023-04-30T07:41:29;98422.39;;;14.80;57.99
41306;BME280;27051;50.376;19.152;2023-04-30T07:43:56;98424.11;;;15.03;57.60
41306;BME280;27051;50.376;19.152;2023-04-30T07:46:23;98428.59;;;15.20;56.88
41306;BME280;27051;50.376;19.152;2023-04-30T07:48:49;98438.89;;;15.30;56.34
41306;BME280;27051;50.376;19.152;2023-04-30T07:51:16;98436.25;;;15.39;56.73
41306;BME280;27051;50.376;19.152;2023-04-30T07:53:43;98440.06;;;15.65;56.56
41306;BME280;27051;50.376;19.152;2023-04-30T07:56:10;98442.30;;;15.84;55.69
41306;BME280;27051;50.376;19.152;2023-04-30T07:58:37;98440.21;;;15.89;54.85
41306;BME280;27051;50.376;19.152;2023-04-30T08:01:04;98447.38;;;15.92;54.93
41306;BME280;27051;50.376;19.152;2023-04-30T08:03:31;98450.25;;;15.98;54.65
41306;BME280;27051;50.376;19.152;2023-04-30T08:05:58;98450.05;;;16.12;54.61
41306;BME280;27051;50.376;19.152;2023-04-30T08:08:24;98451.00;;;16.19;52.98
41306;BME280;27051;50.376;19.152;2023-04-30T08:10:51;98457.05;;;16.31;52.53
41306;BME280;27051;50.376;19.152;2023-04-30T08:13:17;98458.59;;;16.43;52.90
41306;BME280;27051;50.376;19.152;2023-04-30T08:15:44;98462.39;;;16.56;52.79
41306;BME280;27051;50.376;19.152;2023-04-30T08:18:11;98464.77;;;16.74;52.61
41306;BME280;27051;50.376;19.152;2023-04-30T08:20:38;98468.33;;;16.85;51.92
41306;BME280;27051;50.376;19.152;2023-04-30T08:23:05;98464.77;;;16.86;51.42
41306;BME280;27051;50.376;19.152;2023-04-30T08:25:32;98462.16;;;16.87;51.45
41306;BME280;27051;50.376;19.152;2023-04-30T08:27:58;98462.75;;;16.92;51.18
41306;BME280;27051;50.376;19.152;2023-04-30T08:30:25;98464.48;;;16.94;51.05
41306;BME280;27051;50.376;19.152;2023-04-30T08:32:52;98462.33;;;16.83;50.08
41306;BME280;27051;50.376;19.152;2023-04-30T08:35:20;98467.21;;;16.59;50.10
41306;BME280;27051;50.376;19.152;2023-04-30T08:37:47;98467.46;;;16.60;50.62
41306;BME280;27051;50.376;19.152;2023-04-30T08:40:13;98470.02;;;16.83;50.52
41306;BME280;27051;50.376;19.152;2023-04-30T08:42:45;98466.38;;;17.06;50.48
41306;BME280;27051;50.376;19.152;2023-04-30T08:45:13;98468.65;;;17.42;49.68
41306;BME280;27051;50.376;19.152;2023-04-30T08:47:40;98470.20;;;17.80;49.24
41306;BME280;27051;50.376;19.152;2023-04-30T08:50:07;98470.25;;;18.09;49.22
41306;BME280;27051;50.376;19.152;2023-04-30T08:52:36;98466.72;;;18.18;48.76
41306;BME280;27051;50.376;19.152;2023-04-30T08:55:06;98469.22;;;18.21;48.60
41306;BME280;27051;50.376;19.152;2023-04-30T08:57:34;98474.44;;;18.22;47.86
41306;BME280;27051;50.376;19.152;2023-04-30T09:00:01;98479.95;;;18.07;47.26
41306;BME280;27051;50.376;19.152;2023-04-30T09:02:31;98478.72;;;17.97;46.91
41306;BME280;27051;50.376;19.152;2023-04-30T09:04:58;98480.47;;;18.16;46.87
41306;BME280;27051;50.376;19.152;2023-04-30T09:07:25;98478.02;;;18.36;46.89
41306;BME280;27051;50.376;19.152;2023-04-30T09:09:52;98474.50;;;18.69;46.56
41306;BME280;27051;50.376;19.152;2023-04-30T09:12:19;98477.19;;;19.03;46.61
41306;BME280;27051;50.376;19.152;2023-04-30T09:15:04;98467.43;;;19.41;45.89
41306;BME280;27051;50.376;19.152;2023-04-30T09:17:31;98468.45;;;19.55;44.57
41306;BME280;27051;50.376;19.152;2023-04-30T09:22:36;98484.81;;;19.64;45.24
41306;BME280;27051;50.376;19.152;2023-04-30T09:25:04;98485.75;;;19.91;44.08
41306;BME280;27051;50.376;19.152;2023-04-30T09:27:31;98491.20;;;19.95;43.51
41306;BME280;27051;50.376;19.152;2023-04-30T09:29:58;98498.38;;;19.67;43.00
41306;BME280;27051;50.376;19.152;2023-04-30T09:32:25;98502.00;;;19.33;42.98
41306;BME280;27051;50.376;19.152;2023-04-30T09:34:51;98493.39;;;19.71;43.78
41306;BME280;27051;50.376;19.152;2023-04-30T09:37:18;98491.45;;;20.55;43.13
41306;BME280;27051;50.376;19.152;2023-04-30T09:39:49;98493.20;;;21.03;41.74
41306;BME280;27051;50.376;19.152;2023-04-30T09:42:16;98490.11;;;20.96;41.42
41306;BME280;27051;50.376;19.152;2023-04-30T09:44:43;98493.98;;;21.04;41.60
41306;BME280;27051;50.376;19.152;2023-04-30T09:47:17;98494.44;;;21.43;41.33
41306;BME280;27051;50.376;19.152;2023-04-30T09:49:49;98492.30;;;21.96;40.51
41306;BME280;27051;50.376;19.152;2023-04-30T09:52:17;98485.79;;;22.51;40.22
41306;BME280;27051;50.376;19.152;2023-04-30T09:54:45;98484.50;;;23.04;39.84
41306;BME280;27051;50.376;19.152;2023-04-30T09:57:13;98475.45;;;23.70;39.19
41306;BME280;27051;50.376;19.152;2023-04-30T09:59:45;98475.64;;;24.31;38.33
41306;BME280;27051;50.376;19.152;2023-04-30T10:02:14;98477.17;;;24.80;37.62
41306;BME280;27051;50.376;19.152;2023-04-30T10:04:42;98477.65;;;25.16;37.45
41306;BME280;27051;50.376;19.152;2023-04-30T10:07:18;98473.55;;;25.57;36.76
41306;BME280;27051;50.376;19.152;2023-04-30T10:12:26;98473.83;;;26.12;35.59
41306;BME280;27051;50.376;19.152;2023-04-30T10:15:08;98474.42;;;25.67;34.96
41306;BME280;27051;50.376;19.152;2023-04-30T10:17:37;98469.27;;;25.08;35.24
41306;BME280;27051;50.376;19.152;2023-04-30T10:20:05;98466.59;;;25.37;35.09
41306;BME280;27051;50.376;19.152;2023-04-30T10:22:35;98467.55;;;25.29;34.28
41306;BME280;27051;50.376;19.152;2023-04-30T10:25:02;98471.05;;;25.16;34.58
41306;BME280;27051;50.376;19.152;2023-04-30T10:27:29;98472.65;;;24.97;34.30
41306;BME280;27051;50.376;19.152;2023-04-30T10:29:58;98474.37;;;24.61;33.63
41306;BME280;27051;50.376;19.152;2023-04-30T10:32:30;98471.06;;;24.57;33.66
41306;BME280;27051;50.376;19.152;2023-04-30T10:35:07;98470.30;;;24.96;33.11
41306;BME280;27051;50.376;19.152;2023-04-30T10:38:03;98471.82;;;25.51;32.50
41306;BME280;27051;50.376;19.152;2023-04-30T10:40:35;98467.33;;;25.96;32.33
41306;BME280;27051;50.376;19.152;2023-04-30T10:43:02;98470.92;;;26.12;32.27
41306;BME280;27051;50.376;19.152;2023-04-30T10:45:36;98468.81;;;26.60;31.73
41306;BME280;27051;50.376;19.152;2023-04-30T10:48:04;98466.05;;;27.27;30.38
41306;BME280;27051;50.376;19.152;2023-04-30T10:50:31;98460.08;;;27.99;30.23
41306;BME280;27051;50.376;19.152;2023-04-30T10:53:05;98454.97;;;28.59;29.60
41306;BME280;27051;50.376;19.152;2023-04-30T10:55:32;98450.90;;;29.03;29.19
41306;BME280;27051;50.376;19.152;2023-04-30T10:57:58;98449.38;;;29.54;29.14
41306;BME280;27051;50.376;19.152;2023-04-30T11:00:27;98447.16;;;29.96;28.18
41306;BME280;27051;50.376;19.152;2023-04-30T11:03:02;98443.89;;;30.09;27.21
41306;BME280;27051;50.376;19.152;2023-04-30T11:05:34;98446.39;;;29.84;26.96
41306;BME280;27051;50.376;19.152;2023-04-30T11:08:01;98450.44;;;29.75;27.50
41306;BME280;27051;50.376;19.152;2023-04-30T11:10:32;98448.39;;;30.22;27.16
41306;BME280;27051;50.376;19.152;2023-04-30T11:13:03;98442.17;;;30.92;26.60
41306;BME280;27051;50.376;19.152;2023-04-30T11:15:34;98447.27;;;31.49;25.86
41306;BME280;27051;50.376;19.152;2023-04-30T11:18:06;98448.55;;;32.05;25.18
41306;BME280;27051;50.376;19.152;2023-04-30T11:20:38;98446.89;;;32.43;25.08
41306;BME280;27051;50.376;19.152;2023-04-30T11:23:13;98443.20;;;32.85;24.57
41306;BME280;27051;50.376;19.152;2023-04-30T11:25:53;98438.45;;;33.23;23.52
41306;BME280;27051;50.376;19.152;2023-04-30T11:28:21;98433.52;;;33.37;22.49
41306;BME280;27051;50.376;19.152;2023-04-30T11:30:59;98433.66;;;33.47;22.71
41306;BME280;27051;50.376;19.152;2023-04-30T11:33:30;98439.95;;;32.95;22.39
41306;BME280;27051;50.376;19.152;2023-04-30T11:35:59;98450.09;;;32.47;22.58
41306;BME280;27051;50.376;19.152;2023-04-30T11:38:33;98443.04;;;32.91;21.83
41306;BME280;27051;50.376;19.152;2023-04-30T11:41:02;98441.63;;;33.55;22.24
41306;BME280;27051;50.376;19.152;2023-04-30T11:43:33;98443.63;;;34.42;21.86
41306;BME280;27051;50.376;19.152;2023-04-30T11:46:08;98446.39;;;35.04;20.45
41306;BME280;27051;50.376;19.152;2023-04-30T11:48:37;98443.48;;;35.32;20.48
41306;BME280;27051;50.376;19.152;2023-04-30T11:51:13;98448.08;;;35.90;20.22
41306;BME280;27051;50.376;19.152;2023-04-30T11:53:40;98448.11;;;36.63;19.76
41306;BME280;27051;50.376;19.152;2023-04-30T11:56:07;98447.05;;;37.49;19.43
41306;BME280;27051;50.376;19.152;2023-04-30T11:58:35;98441.15;;;38.17;18.79
41306;BME280;27051;50.376;19.152;2023-04-30T12:01:02;98441.71;;;38.39;18.41
41306;BME280;27051;50.376;19.152;2023-04-30T12:03:31;98439.27;;;38.85;18.02
41306;BME280;27051;50.376;19.152;2023-04-30T12:05:57;98440.48;;;39.49;17.74
41306;BME280;27051;50.376;19.152;2023-04-30T12:08:24;98443.59;;;39.40;17.29
41306;BME280;27051;50.376;19.152;2023-04-30T12:10:51;98440.48;;;39.20;17.09
41306;BME280;27051;50.376;19.152;2023-04-30T12:13:17;98442.17;;;39.61;16.69
41306;BME280;27051;50.376;19.152;2023-04-30T12:15:56;98444.03;;;40.00;16.31
41306;BME280;27051;50.376;19.152;2023-04-30T12:18:23;98444.77;;;40.18;16.11
41306;BME280;27051;50.376;19.152;2023-04-30T12:20:50;98445.60;;;40.55;15.63
41306;BME280;27051;50.376;19.152;2023-04-30T12:23:18;98444.27;;;41.26;15.61
41306;BME280;27051;50.376;19.152;2023-04-30T12:25:45;98438.39;;;41.94;15.18
41306;BME280;27051;50.376;19.152;2023-04-30T12:28:12;98432.94;;;42.74;14.75
41306;BME280;27051;50.376;19.152;2023-04-30T12:30:38;98430.66;;;43.48;14.54
41306;BME280;27051;50.376;19.152;2023-04-30T12:33:09;98430.11;;;43.93;14.01
41306;BME280;27051;50.376;19.152;2023-04-30T12:35:36;98427.64;;;44.33;13.74
41306;BME280;27051;50.376;19.152;2023-04-30T12:38:07;98425.63;;;44.40;13.33
41306;BME280;27051;50.376;19.152;2023-04-30T12:40:34;98426.44;;;44.11;13.21
41306;BME280;27051;50.376;19.152;2023-04-30T12:43:03;98431.02;;;44.30;13.16
41306;BME280;27051;50.376;19.152;2023-04-30T12:48:17;98424.39;;;44.79;12.68
41306;BME280;27051;50.376;19.152;2023-04-30T12:50:51;98422.88;;;44.92;12.66
41306;BME280;27051;50.376;19.152;2023-04-30T12:53:18;98424.77;;;45.00;12.62
41306;BME280;27051;50.376;19.152;2023-04-30T12:56:05;98426.36;;;45.06;12.33
41306;BME280;27051;50.376;19.152;2023-04-30T12:58:32;98419.05;;;44.75;12.18
41306;BME280;27051;50.376;19.152;2023-04-30T13:00:59;98421.71;;;44.21;12.38
41306;BME280;27051;50.376;19.152;2023-04-30T13:03:25;98417.90;;;43.99;12.26
41306;BME280;27051;50.376;19.152;2023-04-30T13:05:52;98413.20;;;44.07;12.10
41306;BME280;27051;50.376;19.152;2023-04-30T13:08:19;98412.63;;;44.22;11.89
41306;BME280;27051;50.376;19.152;2023-04-30T13:10:47;98412.71;;;44.25;12.00
41306;BME280;27051;50.376;19.152;2023-04-30T13:13:15;98408.08;;;44.52;11.76
41306;BME280;27051;50.376;19.152;2023-04-30T13:15:42;98408.10;;;44.76;11.72